createdAt,value
2022-08-10T00:01:38.448Z,17.43
2022-08-10T00:04:44.809Z,16.83
2022-08-10T00:07:51.117Z,16.38
2022-08-10T00:10:59.615Z,16.75
2022-08-10T00:14:07.743Z,17.44
2022-08-10T00:17:14.131Z,17.28
2022-08-10T00:20:20.655Z,16.64
2022-08-10T00:23:26.984Z,17.44
2022-08-10T00:27:52.603Z,17.02
2022-08-10T00:30:01.268Z,16.68
2022-08-10T00:33:07.280Z,16.45
2022-08-10T00:36:13.502Z,16.39
2022-08-10T00:39:19.799Z,16.63
2022-08-10T00:42:27.472Z,16.86
2022-08-10T00:45:33.963Z,16.54
2022-08-10T00:48:40.256Z,17.13
2022-08-10T00:51:48.312Z,16.95
2022-08-10T00:54:56.307Z,16.95
2022-08-10T00:58:04.163Z,17.39
2022-08-10T01:02:07.905Z,17.75
2022-08-10T01:04:59.565Z,17.42
2022-08-10T01:08:27.437Z,17.48
2022-08-10T01:12:39.964Z,17.62
2022-08-10T01:15:15.791Z,17.73
2022-08-10T01:18:34.782Z,17.97
2022-08-10T01:22:19.005Z,18.00
2022-08-10T01:26:11.725Z,17.92
2022-08-10T01:29:59.312Z,17.65
2022-08-10T01:33:09.763Z,17.44
2022-08-10T01:36:20.658Z,17.68
2022-08-10T01:39:41.783Z,18.00
2022-08-10T01:42:49.392Z,17.98
2022-08-10T01:46:00.876Z,17.95
2022-08-10T01:49:11.930Z,17.99
2022-08-10T01:52:22.123Z,17.96
2022-08-10T01:55:30.342Z,17.91
2022-08-10T01:58:38.535Z,17.59
2022-08-10T02:01:50.419Z,17.27
2022-08-10T02:04:59.680Z,16.84
2022-08-10T02:08:09.197Z,16.81
2022-08-10T02:11:17.385Z,16.74
2022-08-10T02:14:26.111Z,16.97
2022-08-10T02:17:58.287Z,16.96
2022-08-10T02:21:08.747Z,17.38
2022-08-10T02:24:17.329Z,17.17
2022-08-10T02:27:26.309Z,17.20
2022-08-10T02:30:34.567Z,17.40
2022-08-10T02:33:56.895Z,17.64
2022-08-10T02:37:11.072Z,17.67
2022-08-10T02:45:15.945Z,17.69
2022-08-10T02:45:21.688Z,17.44
2022-08-10T02:47:51.338Z,17.42
2022-08-10T02:51:06.714Z,17.39
2022-08-10T02:54:28.072Z,17.23
2022-08-10T02:58:16.636Z,16.97
2022-08-10T03:01:10.390Z,16.34
2022-08-10T03:04:20.865Z,16.84
2022-08-10T03:07:52.353Z,16.28
2022-08-10T03:11:03.428Z,15.95
2022-08-10T03:14:12.078Z,16.78
2022-08-10T03:17:19.423Z,16.67
2022-08-10T03:20:37.374Z,16.83
2022-08-10T03:23:47.708Z,16.84
2022-08-10T03:26:55.195Z,16.17
2022-08-10T03:30:31.803Z,16.42
2022-08-10T03:33:30.816Z,16.18
2022-08-10T03:36:43.672Z,15.92
2022-08-10T03:39:52.987Z,15.54
2022-08-10T03:43:02.365Z,15.44
2022-08-10T03:46:12.265Z,16.06
2022-08-10T03:49:20.483Z,15.69
2022-08-10T03:52:27.333Z,15.25
2022-08-10T03:56:30.379Z,15.56
2022-08-10T03:59:02.035Z,15.51
2022-08-10T04:02:46.745Z,16.27
2022-08-10T04:05:38.742Z,16.38
2022-08-10T04:08:45.910Z,15.94
2022-08-10T04:11:53.716Z,15.97
2022-08-10T04:15:00.074Z,15.49
2022-08-10T04:18:06.750Z,15.17
2022-08-10T04:21:16.071Z,15.54
2022-08-10T04:24:26.917Z,16.04
2022-08-10T04:27:41.365Z,16.39
2022-08-10T04:30:49.440Z,16.37
2022-08-10T04:33:57.403Z,16.61
2022-08-10T04:37:09.055Z,16.86
2022-08-10T04:40:28.332Z,17.28
2022-08-10T04:43:38.344Z,17.16
2022-08-10T04:46:57.781Z,17.32
2022-08-10T04:50:06.303Z,17.83
2022-08-10T04:53:12.588Z,17.79
2022-08-10T04:56:18.835Z,17.98
2022-08-10T04:59:26.354Z,18.02
2022-08-10T05:02:32.672Z,18.45
2022-08-10T05:05:38.731Z,18.40
2022-08-10T05:08:44.841Z,18.49
2022-08-10T05:11:51.067Z,18.64
2022-08-10T05:14:59.028Z,18.68
2022-08-10T05:18:09.760Z,18.71
2022-08-10T05:22:01.388Z,18.37
2022-08-10T05:24:44.288Z,18.46
2022-08-10T05:27:52.390Z,18.59
2022-08-10T05:31:00.652Z,18.56
2022-08-10T05:34:06.865Z,18.66
2022-08-10T05:38:10.858Z,18.70
2022-08-10T05:40:57.283Z,18.75
2022-08-10T05:44:04.356Z,18.54
2022-08-10T05:47:12.887Z,18.19
2022-08-10T05:50:22.640Z,18.72
2022-08-10T05:54:02.909Z,18.24
2022-08-10T05:56:58.302Z,18.86
2022-08-10T06:00:11.249Z,18.89
2022-08-10T06:03:41.404Z,18.90
2022-08-10T06:06:48.978Z,18.44
2022-08-10T06:09:59.777Z,18.73
2022-08-10T06:13:30.736Z,18.87
2022-08-10T06:16:42.031Z,19.13
2022-08-10T06:19:51.092Z,19.17
2022-08-10T06:22:58.708Z,19.45
2022-08-10T06:26:09.554Z,19.55
2022-08-10T06:29:22.875Z,20.54
2022-08-10T06:32:31.299Z,21.34
2022-08-10T06:35:39.486Z,21.67
2022-08-10T06:38:48.072Z,21.35
2022-08-10T06:42:15.941Z,21.92
2022-08-10T06:45:29.173Z,22.37
2022-08-10T06:48:40.547Z,22.02
2022-08-10T06:51:57.206Z,22.47
2022-08-10T06:55:08.559Z,22.13
2022-08-10T06:58:17.027Z,22.85
2022-08-10T07:01:29.761Z,23.15
2022-08-10T07:04:42.319Z,23.72
2022-08-10T07:07:52.666Z,23.41
2022-08-10T07:10:59.639Z,23.55
2022-08-10T07:14:14.003Z,24.15
2022-08-10T07:17:23.715Z,24.00
2022-08-10T07:20:30.984Z,24.17
2022-08-10T07:23:57.781Z,23.84
2022-08-10T07:27:07.612Z,24.16
2022-08-10T07:30:14.370Z,24.99
2022-08-10T07:33:23.552Z,24.97
2022-08-10T07:36:32.972Z,25.50
2022-08-10T07:40:02.150Z,25.10
2022-08-10T07:43:11.126Z,25.35
2022-08-10T07:46:18.734Z,25.35
2022-08-10T07:49:27.696Z,25.44
2022-08-10T07:52:37.861Z,26.28
2022-08-10T07:56:04.052Z,26.85
2022-08-10T07:59:19.726Z,26.56
2022-08-10T08:02:30.205Z,27.50
2022-08-10T08:06:02.962Z,27.55
2022-08-10T08:09:10.468Z,27.34
2022-08-10T08:12:19.326Z,28.04
2022-08-10T08:16:20.239Z,28.17
2022-08-10T08:19:25.569Z,28.83
2022-08-10T08:24:08.885Z,28.00
2022-08-10T08:25:50.286Z,28.48
2022-08-10T08:28:59.211Z,28.59
2022-08-10T08:32:12.162Z,27.85
2022-08-10T08:35:20.204Z,28.48
2022-08-10T08:38:32.683Z,27.84
2022-08-10T08:42:09.289Z,29.15
2022-08-10T08:45:26.051Z,29.29
2022-08-10T08:48:47.576Z,29.30
2022-08-10T08:52:18.348Z,27.78
2022-08-10T08:56:03.281Z,27.86
2022-08-10T08:59:21.487Z,28.04
2022-08-10T09:02:54.437Z,28.30
2022-08-10T09:06:17.382Z,28.67
2022-08-10T09:09:38.941Z,29.45
2022-08-10T09:12:54.713Z,29.13
2022-08-10T09:16:16.891Z,29.27
2022-08-10T09:19:35.594Z,29.89
2022-08-10T09:22:57.624Z,29.92
2022-08-10T09:26:13.018Z,29.71
2022-08-10T09:29:27.039Z,29.60
2022-08-10T09:36:17.094Z,28.46
2022-08-10T09:36:32.265Z,28.13
2022-08-10T09:40:12.493Z,27.99
2022-08-10T09:43:32.063Z,27.90
2022-08-10T09:46:53.328Z,27.76
2022-08-10T09:50:15.513Z,28.28
2022-08-10T09:53:23.562Z,28.43
2022-08-10T09:56:37.628Z,29.88
2022-08-10T10:00:01.859Z,29.36
2022-08-10T10:03:20.568Z,29.22
2022-08-10T10:06:39.517Z,28.47
2022-08-10T10:09:58.118Z,28.69
2022-08-10T10:13:13.196Z,28.79
2022-08-10T10:16:34.726Z,28.07
2022-08-10T10:19:56.370Z,27.85
2022-08-10T10:23:15.352Z,29.13
2022-08-10T10:26:33.678Z,29.09
2022-08-10T10:29:58.502Z,29.57
2022-08-10T10:33:19.533Z,29.25
2022-08-10T10:36:27.915Z,29.41
2022-08-10T10:39:35.843Z,28.04
2022-08-10T10:42:50.840Z,28.51
2022-08-10T10:46:12.189Z,28.00
2022-08-10T10:49:28.048Z,27.56
2022-08-10T10:52:44.429Z,26.99
2022-08-10T10:56:15.132Z,26.56
2022-08-10T10:59:55.641Z,26.62
2022-08-10T11:03:22.564Z,26.36
2022-08-10T11:06:45.614Z,25.95
2022-08-10T11:10:08.685Z,26.49
2022-08-10T11:14:25.362Z,26.43
2022-08-10T11:17:06.754Z,26.09
2022-08-10T11:20:17.659Z,26.28
2022-08-10T11:23:34.709Z,27.22
2022-08-10T11:26:48.611Z,27.21
2022-08-10T11:30:07.664Z,26.46
2022-08-10T11:33:32.471Z,26.39
2022-08-10T11:36:46.752Z,26.00
2022-08-10T11:40:00.764Z,26.03
2022-08-10T11:43:14.770Z,25.88
2022-08-10T11:46:28.769Z,25.78
2022-08-10T11:49:45.766Z,25.72
2022-08-10T11:53:01.483Z,25.82
2022-08-10T11:56:11.367Z,25.63
2022-08-10T11:59:38.103Z,25.55
2022-08-10T12:02:48.535Z,25.70
2022-08-10T12:05:59.791Z,25.58
2022-08-10T12:10:08.634Z,25.67
2022-08-10T12:12:40.317Z,25.58
2022-08-10T12:15:54.730Z,25.73
2022-08-10T12:19:07.101Z,25.60
2022-08-10T12:22:21.119Z,25.51
2022-08-10T12:25:55.749Z,25.53
2022-08-10T12:29:12.151Z,25.73
2022-08-10T12:32:28.296Z,25.73
2022-08-10T12:35:40.153Z,25.83
2022-08-10T12:39:04.289Z,25.97
2022-08-10T12:42:38.916Z,26.05
2022-08-10T12:46:06.485Z,26.04
2022-08-10T12:49:20.362Z,26.03
2022-08-10T12:52:31.028Z,26.11
2022-08-10T12:55:42.573Z,26.09
2022-08-10T12:58:57.509Z,26.35
2022-08-10T13:02:10.839Z,26.35
2022-08-10T13:05:18.759Z,26.21
2022-08-10T13:08:45.407Z,26.57
2022-08-10T13:12:44.678Z,26.47
2022-08-10T13:15:49.042Z,26.67
2022-08-10T13:19:00.340Z,26.53
2022-08-10T13:22:09.325Z,27.21
2022-08-10T13:25:19.564Z,26.92
2022-08-10T13:28:39.605Z,27.13
2022-08-10T13:32:09.177Z,26.64
2022-08-10T13:35:19.009Z,26.91
2022-08-10T13:38:26.671Z,26.58
2022-08-10T13:41:36.692Z,26.56
2022-08-10T13:44:47.964Z,26.50
2022-08-10T13:48:07.742Z,26.05
2022-08-10T13:51:15.525Z,25.96
2022-08-10T13:54:26.052Z,26.08
2022-08-10T13:57:36.009Z,25.98
2022-08-10T14:00:52.454Z,26.05
2022-08-10T14:04:00.916Z,26.35
2022-08-10T14:07:07.575Z,26.26
2022-08-10T14:10:17.502Z,26.06
2022-08-10T14:13:24.796Z,25.95
2022-08-10T14:16:34.571Z,26.04
2022-08-10T14:19:43.497Z,26.13
2022-08-10T14:22:50.139Z,26.07
2022-08-10T14:26:02.293Z,25.89
2022-08-10T14:29:19.589Z,25.99
2022-08-10T14:32:31.853Z,25.77
2022-08-10T14:36:19.561Z,25.92
2022-08-10T14:39:10.480Z,25.85
2022-08-10T14:42:27.273Z,25.62
2022-08-10T14:45:37.380Z,25.85
2022-08-10T14:48:49.089Z,25.82
2022-08-10T14:52:01.153Z,25.86
2022-08-10T14:55:19.837Z,25.52
2022-08-10T14:58:28.286Z,25.58
2022-08-10T15:01:59.817Z,25.76
2022-08-10T15:05:08.944Z,25.91
2022-08-10T15:08:16.331Z,25.82
2022-08-10T15:12:15.019Z,25.71
2022-08-10T15:14:51.379Z,26.18
2022-08-10T15:17:59.875Z,26.05
2022-08-10T15:21:17.361Z,25.92
2022-08-10T15:24:38.954Z,25.85
2022-08-10T15:27:53.907Z,25.87
2022-08-10T15:31:02.344Z,26.02
2022-08-10T15:34:28.920Z,25.24
2022-08-10T15:37:47.254Z,25.12
2022-08-10T15:40:57.885Z,25.07
2022-08-10T15:44:06.599Z,25.17
2022-08-10T15:47:18.603Z,25.17
2022-08-10T15:50:29.277Z,25.33
2022-08-10T15:53:49.074Z,25.16
2022-08-10T15:57:02.664Z,25.39
2022-08-10T16:00:12.407Z,25.05
2022-08-10T16:03:25.852Z,24.80
2022-08-10T16:06:36.015Z,24.89
2022-08-10T16:10:26.234Z,24.92
2022-08-10T16:14:00.087Z,24.88
2022-08-10T16:16:51.297Z,24.62
2022-08-10T16:20:00.415Z,24.67
2022-08-10T16:23:08.741Z,24.66
2022-08-10T16:26:19.072Z,24.59
2022-08-10T16:29:28.830Z,24.46
2022-08-10T16:32:37.052Z,24.44
2022-08-10T16:35:49.834Z,24.19
2022-08-10T16:38:56.997Z,24.00
2022-08-10T16:42:09.663Z,23.95
2022-08-10T16:45:21.829Z,23.81
2022-08-10T16:48:49.137Z,23.50
2022-08-10T16:51:57.801Z,23.57
2022-08-10T16:55:23.437Z,23.69
2022-08-10T16:58:36.812Z,23.28
2022-08-10T17:01:44.279Z,23.15
2022-08-10T17:04:59.941Z,23.15
2022-08-10T17:08:10.506Z,22.81
2022-08-10T17:11:17.823Z,22.76
2022-08-10T17:14:27.975Z,22.20
2022-08-10T17:17:38.694Z,22.15
2022-08-10T17:20:45.865Z,21.78
2022-08-10T17:23:56.626Z,21.81
2022-08-10T17:28:05.748Z,22.04
2022-08-10T17:30:53.444Z,22.13
2022-08-10T17:34:10.614Z,22.11
2022-08-10T17:37:20.577Z,21.99
2022-08-10T17:40:29.837Z,21.64
2022-08-10T17:43:58.201Z,21.60
2022-08-10T17:47:11.153Z,21.49
2022-08-10T17:50:24.079Z,21.92
2022-08-10T17:53:40.156Z,22.15
2022-08-10T17:56:48.274Z,22.06
2022-08-10T17:59:55.552Z,21.70
2022-08-10T18:03:04.251Z,21.22
2022-08-10T18:06:16.410Z,21.07
2022-08-10T18:09:30.977Z,20.98
2022-08-10T18:12:44.773Z,21.06
2022-08-10T18:15:52.223Z,21.03
2022-08-10T18:19:08.319Z,20.88
2022-08-10T18:22:17.266Z,20.75
2022-08-10T18:25:27.116Z,20.73
2022-08-10T18:28:35.912Z,20.63
2022-08-10T18:31:44.937Z,20.48
2022-08-10T18:34:55.128Z,20.50
2022-08-10T18:38:04.512Z,20.49
2022-08-10T18:41:15.654Z,20.31
2022-08-10T18:44:23.981Z,19.98
2022-08-10T18:47:34.878Z,19.88
2022-08-10T18:50:49.264Z,20.06
2022-08-10T18:54:00.764Z,19.59
2022-08-10T18:57:14.359Z,19.54
2022-08-10T19:00:22.260Z,19.46
2022-08-10T19:03:54.163Z,19.54
2022-08-10T19:07:24.362Z,19.55
2022-08-10T19:10:39.753Z,19.70
2022-08-10T19:13:55.106Z,19.20
2022-08-10T19:17:10.411Z,19.81
2022-08-10T19:20:29.734Z,19.64
2022-08-10T19:24:01.340Z,19.97
2022-08-10T19:27:16.432Z,20.00
2022-08-10T19:30:27.345Z,19.98
2022-08-10T19:34:11.379Z,19.91
2022-08-10T19:37:32.574Z,19.85
2022-08-10T19:40:47.076Z,19.98
2022-08-10T19:44:02.403Z,20.01
2022-08-10T19:47:25.811Z,19.83
2022-08-10T19:50:38.710Z,19.81
2022-08-10T19:54:00.532Z,19.81
2022-08-10T19:57:14.460Z,19.42
2022-08-10T20:00:26.922Z,19.52
2022-08-10T20:03:50.709Z,19.66
2022-08-10T20:07:09.559Z,19.38
2022-08-10T20:10:20.806Z,19.42
2022-08-10T20:13:35.244Z,19.53
2022-08-10T20:16:43.595Z,19.45
2022-08-10T20:19:57.738Z,19.43
2022-08-10T20:23:15.260Z,19.29
2022-08-10T20:26:24.835Z,19.43
2022-08-10T20:29:57.428Z,19.41
2022-08-10T20:33:11.986Z,19.26
2022-08-10T20:36:25.631Z,19.33
2022-08-10T20:39:49.927Z,19.16
2022-08-10T20:43:08.590Z,19.11
2022-08-10T20:46:24.194Z,19.23
2022-08-10T20:49:54.083Z,19.09
2022-08-10T20:53:03.018Z,19.09
2022-08-10T20:56:15.889Z,19.10
2022-08-10T21:00:02.350Z,19.05
2022-08-10T21:03:31.873Z,19.03
2022-08-10T21:06:55.259Z,19.09
2022-08-10T21:10:07.890Z,18.93
2022-08-10T21:13:35.732Z,18.77
2022-08-10T21:16:55.356Z,18.80
2022-08-10T21:20:15.748Z,18.75
2022-08-10T21:23:24.627Z,18.68
2022-08-10T21:26:48.918Z,18.72
2022-08-10T21:30:08.750Z,18.59
2022-08-10T21:33:22.375Z,18.60
2022-08-10T21:36:33.797Z,18.44
2022-08-10T21:39:59.608Z,18.30
2022-08-10T21:43:44.717Z,18.32
2022-08-10T21:47:39.658Z,18.38
2022-08-10T21:51:06.599Z,18.37
2022-08-10T21:54:37.751Z,18.18
2022-08-10T21:58:08.820Z,18.11
2022-08-10T22:01:40.375Z,18.09
2022-08-10T22:05:04.307Z,18.21
2022-08-10T22:08:31.105Z,18.15
2022-08-10T22:12:01.070Z,18.03
2022-08-10T22:16:03.200Z,18.18
2022-08-10T22:19:19.531Z,18.19
2022-08-10T22:22:57.735Z,18.05
2022-08-10T22:26:31.779Z,17.92
2022-08-10T22:30:01.909Z,17.83
2022-08-10T22:33:40.971Z,17.94
2022-08-10T22:37:25.751Z,17.77
2022-08-10T22:40:49.760Z,17.86
2022-08-10T22:44:18.336Z,17.81
2022-08-10T22:47:46.937Z,17.74
2022-08-10T22:50:56.495Z,17.41
2022-08-10T22:54:30.729Z,16.89
2022-08-10T22:58:03.066Z,16.72
2022-08-10T23:01:36.199Z,15.94
2022-08-10T23:04:49.847Z,15.99
2022-08-10T23:08:00.815Z,16.15
2022-08-10T23:11:09.901Z,16.74
2022-08-10T23:14:23.815Z,17.08
2022-08-10T23:18:01.165Z,16.91
2022-08-10T23:21:15.116Z,17.10
2022-08-10T23:24:28.672Z,17.41
2022-08-10T23:27:38.457Z,17.34
2022-08-10T23:30:51.611Z,17.19
2022-08-10T23:34:00.909Z,17.22
2022-08-10T23:37:10.330Z,17.12
2022-08-10T23:40:19.240Z,16.91
2022-08-10T23:43:46.738Z,17.00
2022-08-10T23:46:55.235Z,16.76
2022-08-10T23:50:03.707Z,16.91
2022-08-10T23:53:13.475Z,16.79
2022-08-10T23:56:22.198Z,16.83
2022-08-10T23:59:31.315Z,16.86
